sensor_id;sensor_type;location;lat;lon;timestamp;P1;durP1;ratioP1;P2;durP2;ratioP2
11711;SDS011;5912;51.034;6.984;2023-06-22T00:01:55;3.50;;;3.20;;
11711;SDS011;5912;51.034;6.984;2023-06-22T00:04:21;3.75;;;3.42;;
11711;SDS011;5912;51.034;6.984;2023-06-22T00:06:46;3.92;;;3.40;;
11711;SDS011;5912;51.034;6.984;2023-06-22T00:09:11;4.20;;;3.42;;
11711;SDS011;5912;51.034;6.984;2023-06-22T00:11:37;3.38;;;3.08;;
11711;SDS011;5912;51.034;6.984;2023-06-22T00:14:03;5.05;;;3.05;;
11711;SDS011;5912;51.034;6.984;2023-06-22T00:16:29;2.70;;;2.50;;
11711;SDS011;5912;51.034;6.984;2023-06-22T00:18:55;2.97;;;2.70;;
11711;SDS011;5912;51.034;6.984;2023-06-22T00:21:20;3.00;;;2.65;;
11711;SDS011;5912;51.034;6.984;2023-06-22T00:23:46;5.03;;;2.95;;
11711;SDS011;5912;51.034;6.984;2023-06-22T00:26:12;3.08;;;2.78;;
11711;SDS011;5912;51.034;6.984;2023-06-22T00:28:38;3.25;;;2.70;;
11711;SDS011;5912;51.034;6.984;2023-06-22T00:31:03;2.90;;;2.60;;
11711;SDS011;5912;51.034;6.984;2023-06-22T00:33:28;2.85;;;2.53;;
11711;SDS011;5912;51.034;6.984;2023-06-22T00:35:54;2.75;;;2.30;;
11711;SDS011;5912;51.034;6.984;2023-06-22T00:38:19;5.78;;;3.08;;
11711;SDS011;5912;51.034;6.984;2023-06-22T00:40:45;3.90;;;2.67;;
11711;SDS011;5912;51.034;6.984;2023-06-22T00:43:11;3.05;;;2.75;;
11711;SDS011;5912;51.034;6.984;2023-06-22T00:45:36;2.75;;;2.45;;
11711;SDS011;5912;51.034;6.984;2023-06-22T00:48:01;5.07;;;2.55;;
11711;SDS011;5912;51.034;6.984;2023-06-22T00:50:31;2.97;;;2.65;;
11711;SDS011;5912;51.034;6.984;2023-06-22T00:52:59;3.03;;;2.40;;
11711;SDS011;5912;51.034;6.984;2023-06-22T00:55:38;3.00;;;2.70;;
11711;SDS011;5912;51.034;6.984;2023-06-22T00:58:08;2.97;;;2.42;;
11711;SDS011;5912;51.034;6.984;2023-06-22T01:00:38;3.25;;;2.25;;
11711;SDS011;5912;51.034;6.984;2023-06-22T01:03:05;2.75;;;2.38;;
11711;SDS011;5912;51.034;6.984;2023-06-22T01:05:34;2.75;;;2.50;;
11711;SDS011;5912;51.034;6.984;2023-06-22T01:13:16;2.88;;;2.20;;
11711;SDS011;5912;51.034;6.984;2023-06-22T01:15:55;2.75;;;2.55;;
11711;SDS011;5912;51.034;6.984;2023-06-22T01:18:27;2.72;;;2.53;;
11711;SDS011;5912;51.034;6.984;2023-06-22T01:20:55;2.83;;;2.50;;
11711;SDS011;5912;51.034;6.984;2023-06-22T01:26:08;2.55;;;2.35;;
11711;SDS011;5912;51.034;6.984;2023-06-22T01:31:13;2.53;;;2.33;;
11711;SDS011;5912;51.034;6.984;2023-06-22T01:33:42;3.60;;;2.83;;
11711;SDS011;5912;51.034;6.984;2023-06-22T01:36:08;3.38;;;2.67;;
11711;SDS011;5912;51.034;6.984;2023-06-22T01:38:34;2.55;;;2.35;;
11711;SDS011;5912;51.034;6.984;2023-06-22T01:41:02;3.03;;;2.72;;
11711;SDS011;5912;51.034;6.984;2023-06-22T01:43:28;3.72;;;2.38;;
11711;SDS011;5912;51.034;6.984;2023-06-22T01:45:55;3.25;;;2.60;;
11711;SDS011;5912;51.034;6.984;2023-06-22T01:48:21;4.32;;;2.30;;
11711;SDS011;5912;51.034;6.984;2023-06-22T01:50:48;4.50;;;2.50;;
11711;SDS011;5912;51.034;6.984;2023-06-22T01:53:14;4.82;;;2.60;;
11711;SDS011;5912;51.034;6.984;2023-06-22T01:55:40;3.15;;;2.85;;
11711;SDS011;5912;51.034;6.984;2023-06-22T01:58:05;2.50;;;2.30;;
11711;SDS011;5912;51.034;6.984;2023-06-22T02:00:34;3.00;;;2.50;;
11711;SDS011;5912;51.034;6.984;2023-06-22T02:03:05;2.83;;;2.50;;
11711;SDS011;5912;51.034;6.984;2023-06-22T02:05:36;3.22;;;2.53;;
11711;SDS011;5912;51.034;6.984;2023-06-22T02:08:08;2.57;;;2.20;;
11711;SDS011;5912;51.034;6.984;2023-06-22T02:10:37;2.58;;;2.03;;
11711;SDS011;5912;51.034;6.984;2023-06-22T02:13:06;2.80;;;2.35;;
11711;SDS011;5912;51.034;6.984;2023-06-22T02:15:33;3.05;;;2.55;;
11711;SDS011;5912;51.034;6.984;2023-06-22T02:18:01;2.63;;;2.42;;
11711;SDS011;5912;51.034;6.984;2023-06-22T02:20:26;2.70;;;2.30;;
11711;SDS011;5912;51.034;6.984;2023-06-22T02:22:52;3.13;;;2.38;;
11711;SDS011;5912;51.034;6.984;2023-06-22T02:25:17;2.80;;;2.42;;
11711;SDS011;5912;51.034;6.984;2023-06-22T02:27:44;3.78;;;2.60;;
11711;SDS011;5912;51.034;6.984;2023-06-22T02:30:09;3.30;;;2.38;;
11711;SDS011;5912;51.034;6.984;2023-06-22T02:32:37;3.15;;;2.78;;
11711;SDS011;5912;51.034;6.984;2023-06-22T02:35:07;3.15;;;2.85;;
11711;SDS011;5912;51.034;6.984;2023-06-22T02:37:36;2.72;;;2.45;;
11711;SDS011;5912;51.034;6.984;2023-06-22T02:40:04;2.60;;;2.38;;
11711;SDS011;5912;51.034;6.984;2023-06-22T02:42:32;2.90;;;2.55;;
11711;SDS011;5912;51.034;6.984;2023-06-22T02:44:57;3.13;;;2.83;;
11711;SDS011;5912;51.034;6.984;2023-06-22T02:47:23;2.88;;;2.40;;
11711;SDS011;5912;51.034;6.984;2023-06-22T02:49:48;3.30;;;2.42;;
11711;SDS011;5912;51.034;6.984;2023-06-22T02:52:13;2.75;;;2.50;;
11711;SDS011;5912;51.034;6.984;2023-06-22T02:54:38;2.42;;;2.22;;
11711;SDS011;5912;51.034;6.984;2023-06-22T02:57:04;4.15;;;2.70;;
11711;SDS011;5912;51.034;6.984;2023-06-22T02:59:29;2.60;;;2.40;;
11711;SDS011;5912;51.034;6.984;2023-06-22T03:01:55;2.65;;;2.40;;
11711;SDS011;5912;51.034;6.984;2023-06-22T03:04:20;2.72;;;2.50;;
11711;SDS011;5912;51.034;6.984;2023-06-22T03:06:46;3.35;;;2.50;;
11711;SDS011;5912;51.034;6.984;2023-06-22T03:09:15;2.90;;;2.33;;
11711;SDS011;5912;51.034;6.984;2023-06-22T03:11:41;3.45;;;2.70;;
11711;SDS011;5912;51.034;6.984;2023-06-22T03:14:07;3.58;;;2.70;;
11711;SDS011;5912;51.034;6.984;2023-06-22T03:16:32;2.97;;;2.42;;
11711;SDS011;5912;51.034;6.984;2023-06-22T03:18:58;3.78;;;2.28;;
11711;SDS011;5912;51.034;6.984;2023-06-22T03:21:25;3.25;;;2.53;;
11711;SDS011;5912;51.034;6.984;2023-06-22T03:23:54;3.15;;;2.45;;
11711;SDS011;5912;51.034;6.984;2023-06-22T03:26:19;2.42;;;2.22;;
11711;SDS011;5912;51.034;6.984;2023-06-22T03:28:45;2.65;;;2.42;;
11711;SDS011;5912;51.034;6.984;2023-06-22T03:31:11;3.15;;;2.20;;
11711;SDS011;5912;51.034;6.984;2023-06-22T03:33:36;3.47;;;2.60;;
11711;SDS011;5912;51.034;6.984;2023-06-22T03:36:02;3.42;;;2.45;;
11711;SDS011;5912;51.034;6.984;2023-06-22T03:38:27;2.35;;;2.10;;
11711;SDS011;5912;51.034;6.984;2023-06-22T03:40:53;2.95;;;2.50;;
11711;SDS011;5912;51.034;6.984;2023-06-22T03:43:18;2.80;;;2.53;;
11711;SDS011;5912;51.034;6.984;2023-06-22T03:45:43;2.78;;;2.30;;
11711;SDS011;5912;51.034;6.984;2023-06-22T03:48:10;3.53;;;2.65;;
11711;SDS011;5912;51.034;6.984;2023-06-22T03:50:36;3.13;;;2.78;;
11711;SDS011;5912;51.034;6.984;2023-06-22T03:53:01;4.63;;;2.55;;
11711;SDS011;5912;51.034;6.984;2023-06-22T03:55:27;3.50;;;2.53;;
11711;SDS011;5912;51.034;6.984;2023-06-22T03:57:53;3.33;;;2.60;;
11711;SDS011;5912;51.034;6.984;2023-06-22T04:00:21;2.83;;;2.28;;
11711;SDS011;5912;51.034;6.984;2023-06-22T04:02:50;2.47;;;2.28;;
11711;SDS011;5912;51.034;6.984;2023-06-22T04:05:15;3.97;;;3.00;;
11711;SDS011;5912;51.034;6.984;2023-06-22T04:07:42;3.78;;;2.60;;
11711;SDS011;5912;51.034;6.984;2023-06-22T04:10:07;2.20;;;2.00;;
11711;SDS011;5912;51.034;6.984;2023-06-22T04:12:33;3.80;;;2.67;;
11711;SDS011;5912;51.034;6.984;2023-06-22T04:14:59;2.58;;;2.22;;
11711;SDS011;5912;51.034;6.984;2023-06-22T04:17:24;2.65;;;2.15;;
11711;SDS011;5912;51.034;6.984;2023-06-22T04:19:50;2.95;;;2.63;;
11711;SDS011;5912;51.034;6.984;2023-06-22T04:22:19;3.08;;;2.70;;
11711;SDS011;5912;51.034;6.984;2023-06-22T04:24:44;2.55;;;2.35;;
11711;SDS011;5912;51.034;6.984;2023-06-22T04:27:10;2.80;;;2.58;;
11711;SDS011;5912;51.034;6.984;2023-06-22T04:29:35;2.50;;;2.30;;
11711;SDS011;5912;51.034;6.984;2023-06-22T04:32:01;3.72;;;2.95;;
11711;SDS011;5912;51.034;6.984;2023-06-22T04:34:30;3.92;;;2.92;;
11711;SDS011;5912;51.034;6.984;2023-06-22T04:36:56;2.45;;;2.25;;
11711;SDS011;5912;51.034;6.984;2023-06-22T04:39:22;2.80;;;2.60;;
11711;SDS011;5912;51.034;6.984;2023-06-22T04:41:48;2.78;;;2.50;;
11711;SDS011;5912;51.034;6.984;2023-06-22T04:44:14;3.47;;;2.83;;
11711;SDS011;5912;51.034;6.984;2023-06-22T04:46:53;3.00;;;2.70;;
11711;SDS011;5912;51.034;6.984;2023-06-22T04:49:25;3.28;;;2.90;;
11711;SDS011;5912;51.034;6.984;2023-06-22T04:51:57;3.45;;;2.40;;
11711;SDS011;5912;51.034;6.984;2023-06-22T04:54:26;2.75;;;2.55;;
11711;SDS011;5912;51.034;6.984;2023-06-22T04:56:54;2.70;;;2.50;;
11711;SDS011;5912;51.034;6.984;2023-06-22T04:59:23;2.97;;;2.45;;
11711;SDS011;5912;51.034;6.984;2023-06-22T05:01:53;2.33;;;2.13;;
11711;SDS011;5912;51.034;6.984;2023-06-22T05:04:28;3.13;;;2.83;;
11711;SDS011;5912;51.034;6.984;2023-06-22T05:06:58;3.50;;;2.88;;
11711;SDS011;5912;51.034;6.984;2023-06-22T05:09:25;3.38;;;2.70;;
11711;SDS011;5912;51.034;6.984;2023-06-22T05:11:51;2.70;;;2.50;;
11711;SDS011;5912;51.034;6.984;2023-06-22T05:14:16;3.40;;;2.67;;
11711;SDS011;5912;51.034;6.984;2023-06-22T05:16:42;3.63;;;2.70;;
11711;SDS011;5912;51.034;6.984;2023-06-22T05:19:08;4.68;;;2.83;;
11711;SDS011;5912;51.034;6.984;2023-06-22T05:21:33;3.08;;;2.78;;
11711;SDS011;5912;51.034;6.984;2023-06-22T05:23:59;3.58;;;2.53;;
11711;SDS011;5912;51.034;6.984;2023-06-22T05:26:25;4.53;;;3.13;;
11711;SDS011;5912;51.034;6.984;2023-06-22T05:28:51;4.32;;;2.50;;
11711;SDS011;5912;51.034;6.984;2023-06-22T05:31:17;3.28;;;2.53;;
11711;SDS011;5912;51.034;6.984;2023-06-22T05:33:44;2.40;;;2.20;;
11711;SDS011;5912;51.034;6.984;2023-06-22T05:36:10;3.50;;;2.88;;
11711;SDS011;5912;51.034;6.984;2023-06-22T05:38:37;3.13;;;2.60;;
11711;SDS011;5912;51.034;6.984;2023-06-22T05:41:03;3.25;;;2.33;;
11711;SDS011;5912;51.034;6.984;2023-06-22T05:43:28;3.00;;;2.40;;
11711;SDS011;5912;51.034;6.984;2023-06-22T05:45:54;2.67;;;2.35;;
11711;SDS011;5912;51.034;6.984;2023-06-22T05:48:19;3.20;;;2.70;;
11711;SDS011;5912;51.034;6.984;2023-06-22T05:50:44;4.45;;;2.65;;
11711;SDS011;5912;51.034;6.984;2023-06-22T05:53:10;3.42;;;3.13;;
11711;SDS011;5912;51.034;6.984;2023-06-22T05:55:35;3.10;;;2.72;;
11711;SDS011;5912;51.034;6.984;2023-06-22T05:58:00;4.22;;;2.67;;
11711;SDS011;5912;51.034;6.984;2023-06-22T06:00:26;4.32;;;3.15;;
11711;SDS011;5912;51.034;6.984;2023-06-22T06:02:51;4.53;;;2.55;;
11711;SDS011;5912;51.034;6.984;2023-06-22T06:05:16;4.43;;;3.03;;
11711;SDS011;5912;51.034;6.984;2023-06-22T06:07:43;3.80;;;3.17;;
11711;SDS011;5912;51.034;6.984;2023-06-22T06:10:08;3.13;;;2.80;;
11711;SDS011;5912;51.034;6.984;2023-06-22T06:12:34;3.97;;;3.58;;
11711;SDS011;5912;51.034;6.984;2023-06-22T06:15:00;4.88;;;4.40;;
11711;SDS011;5912;51.034;6.984;2023-06-22T06:17:26;7.07;;;6.30;;
11711;SDS011;5912;51.034;6.984;2023-06-22T06:19:51;6.88;;;5.75;;
11711;SDS011;5912;51.034;6.984;2023-06-22T06:22:17;6.00;;;5.40;;
11711;SDS011;5912;51.034;6.984;2023-06-22T06:24:44;5.85;;;5.18;;
11711;SDS011;5912;51.034;6.984;2023-06-22T06:27:09;6.88;;;5.00;;
11711;SDS011;5912;51.034;6.984;2023-06-22T06:29:34;5.57;;;4.90;;
11711;SDS011;5912;51.034;6.984;2023-06-22T06:32:00;5.65;;;5.10;;
11711;SDS011;5912;51.034;6.984;2023-06-22T06:34:25;5.55;;;4.82;;
11711;SDS011;5912;51.034;6.984;2023-06-22T06:36:50;5.13;;;4.63;;
11711;SDS011;5912;51.034;6.984;2023-06-22T06:39:16;5.53;;;4.25;;
11711;SDS011;5912;51.034;6.984;2023-06-22T06:41:41;5.93;;;4.50;;
11711;SDS011;5912;51.034;6.984;2023-06-22T06:44:06;5.47;;;4.70;;
11711;SDS011;5912;51.034;6.984;2023-06-22T06:46:32;5.00;;;4.50;;
11711;SDS011;5912;51.034;6.984;2023-06-22T06:48:57;4.80;;;4.40;;
11711;SDS011;5912;51.034;6.984;2023-06-22T06:51:22;6.40;;;4.93;;
11711;SDS011;5912;51.034;6.984;2023-06-22T06:53:48;5.03;;;4.50;;
11711;SDS011;5912;51.034;6.984;2023-06-22T06:56:13;5.25;;;4.75;;
11711;SDS011;5912;51.034;6.984;2023-06-22T06:58:40;6.53;;;4.93;;
11711;SDS011;5912;51.034;6.984;2023-06-22T07:01:07;4.88;;;4.38;;
11711;SDS011;5912;51.034;6.984;2023-06-22T07:03:33;5.38;;;4.70;;
11711;SDS011;5912;51.034;6.984;2023-06-22T07:05:58;4.88;;;4.38;;
11711;SDS011;5912;51.034;6.984;2023-06-22T07:08:24;4.82;;;4.38;;
11711;SDS011;5912;51.034;6.984;2023-06-22T07:10:49;5.00;;;4.50;;
11711;SDS011;5912;51.034;6.984;2023-06-22T07:13:14;4.45;;;3.80;;
11711;SDS011;5912;51.034;6.984;2023-06-22T07:15:40;4.68;;;4.28;;
11711;SDS011;5912;51.034;6.984;2023-06-22T07:18:05;4.78;;;4.38;;
11711;SDS011;5912;51.034;6.984;2023-06-22T07:20:30;4.53;;;4.13;;
11711;SDS011;5912;51.034;6.984;2023-06-22T07:22:56;4.18;;;3.83;;
11711;SDS011;5912;51.034;6.984;2023-06-22T07:25:21;4.63;;;4.13;;
11711;SDS011;5912;51.034;6.984;2023-06-22T07:27:56;4.97;;;4.47;;
11711;SDS011;5912;51.034;6.984;2023-06-22T07:30:24;4.40;;;4.00;;
11711;SDS011;5912;51.034;6.984;2023-06-22T07:32:49;4.32;;;3.92;;
11711;SDS011;5912;51.034;6.984;2023-06-22T07:35:14;4.45;;;3.85;;
11711;SDS011;5912;51.034;6.984;2023-06-22T07:37:41;4.45;;;4.05;;
11711;SDS011;5912;51.034;6.984;2023-06-22T07:40:07;6.50;;;4.60;;
11711;SDS011;5912;51.034;6.984;2023-06-22T07:42:33;4.40;;;4.00;;
11711;SDS011;5912;51.034;6.984;2023-06-22T07:44:58;4.72;;;4.07;;
11711;SDS011;5912;51.034;6.984;2023-06-22T07:47:23;5.22;;;4.72;;
11711;SDS011;5912;51.034;6.984;2023-06-22T07:49:51;4.18;;;3.78;;
11711;SDS011;5912;51.034;6.984;2023-06-22T07:52:17;4.28;;;3.88;;
11711;SDS011;5912;51.034;6.984;2023-06-22T07:54:42;4.68;;;4.28;;
11711;SDS011;5912;51.034;6.984;2023-06-22T07:57:07;4.10;;;3.78;;
11711;SDS011;5912;51.034;6.984;2023-06-22T07:59:33;4.85;;;3.85;;
11711;SDS011;5912;51.034;6.984;2023-06-22T08:01:58;3.75;;;3.45;;
11711;SDS011;5912;51.034;6.984;2023-06-22T08:04:23;4.43;;;3.90;;
11711;SDS011;5912;51.034;6.984;2023-06-22T08:06:49;4.65;;;4.10;;
11711;SDS011;5912;51.034;6.984;2023-06-22T08:09:14;4.35;;;3.95;;
11711;SDS011;5912;51.034;6.984;2023-06-22T08:11:40;4.30;;;3.88;;
11711;SDS011;5912;51.034;6.984;2023-06-22T08:14:05;3.70;;;3.40;;
11711;SDS011;5912;51.034;6.984;2023-06-22T08:16:30;6.20;;;3.80;;
11711;SDS011;5912;51.034;6.984;2023-06-22T08:18:55;4.25;;;3.85;;
11711;SDS011;5912;51.034;6.984;2023-06-22T08:21:21;3.50;;;3.20;;
11711;SDS011;5912;51.034;6.984;2023-06-22T08:23:47;4.35;;;3.65;;
11711;SDS011;5912;51.034;6.984;2023-06-22T08:26:13;3.90;;;3.42;;
11711;SDS011;5912;51.034;6.984;2023-06-22T08:28:39;3.45;;;3.15;;
11711;SDS011;5912;51.034;6.984;2023-06-22T08:31:04;3.28;;;2.85;;
11711;SDS011;5912;51.034;6.984;2023-06-22T08:33:30;4.07;;;3.60;;
11711;SDS011;5912;51.034;6.984;2023-06-22T08:35:56;4.28;;;3.38;;
11711;SDS011;5912;51.034;6.984;2023-06-22T08:38:23;3.95;;;3.20;;
11711;SDS011;5912;51.034;6.984;2023-06-22T08:40:48;3.70;;;3.35;;
11711;SDS011;5912;51.034;6.984;2023-06-22T08:43:13;4.00;;;3.70;;
11711;SDS011;5912;51.034;6.984;2023-06-22T08:45:39;4.32;;;3.42;;
11711;SDS011;5912;51.034;6.984;2023-06-22T08:48:04;3.63;;;3.33;;
11711;SDS011;5912;51.034;6.984;2023-06-22T08:50:30;4.28;;;3.88;;
11711;SDS011;5912;51.034;6.984;2023-06-22T08:52:55;4.28;;;3.72;;
11711;SDS011;5912;51.034;6.984;2023-06-22T08:55:20;4.10;;;3.78;;
11711;SDS011;5912;51.034;6.984;2023-06-22T08:57:46;3.70;;;3.40;;
11711;SDS011;5912;51.034;6.984;2023-06-22T09:00:11;5.03;;;4.53;;
11711;SDS011;5912;51.034;6.984;2023-06-22T09:02:42;5.00;;;3.47;;
11711;SDS011;5912;51.034;6.984;2023-06-22T09:05:07;3.85;;;3.47;;
11711;SDS011;5912;51.034;6.984;2023-06-22T09:07:33;3.92;;;3.63;;
11711;SDS011;5912;51.034;6.984;2023-06-22T09:09:59;4.32;;;3.72;;
11711;SDS011;5912;51.034;6.984;2023-06-22T09:12:25;4.25;;;3.85;;
11711;SDS011;5912;51.034;6.984;2023-06-22T09:14:52;4.78;;;4.15;;
11711;SDS011;5912;51.034;6.984;2023-06-22T09:17:17;3.78;;;3.35;;
11711;SDS011;5912;51.034;6.984;2023-06-22T09:19:43;4.55;;;4.15;;
11711;SDS011;5912;51.034;6.984;2023-06-22T09:22:08;4.85;;;4.40;;
11711;SDS011;5912;51.034;6.984;2023-06-22T09:24:34;4.68;;;4.28;;
11711;SDS011;5912;51.034;6.984;2023-06-22T09:26:59;4.03;;;3.72;;
11711;SDS011;5912;51.034;6.984;2023-06-22T09:29:24;4.38;;;3.55;;
11711;SDS011;5912;51.034;6.984;2023-06-22T09:31:50;4.47;;;4.05;;
11711;SDS011;5912;51.034;6.984;2023-06-22T09:34:15;4.90;;;4.03;;
11711;SDS011;5912;51.034;6.984;2023-06-22T09:36:45;4.30;;;3.90;;
11711;SDS011;5912;51.034;6.984;2023-06-22T09:39:11;4.68;;;3.70;;
11711;SDS011;5912;51.034;6.984;2023-06-22T09:41:36;4.13;;;3.72;;
11711;SDS011;5912;51.034;6.984;2023-06-22T09:44:01;4.40;;;4.00;;
11711;SDS011;5912;51.034;6.984;2023-06-22T09:46:27;4.78;;;3.80;;
11711;SDS011;5912;51.034;6.984;2023-06-22T09:48:53;4.40;;;4.00;;
11711;SDS011;5912;51.034;6.984;2023-06-22T09:51:18;4.18;;;3.78;;
11711;SDS011;5912;51.034;6.984;2023-06-22T09:53:46;4.50;;;4.03;;
11711;SDS011;5912;51.034;6.984;2023-06-22T09:56:11;4.72;;;4.03;;
11711;SDS011;5912;51.034;6.984;2023-06-22T09:58:42;4.22;;;3.83;;
11711;SDS011;5912;51.034;6.984;2023-06-22T10:01:11;4.97;;;4.00;;
11711;SDS011;5912;51.034;6.984;2023-06-22T10:03:36;4.45;;;4.00;;
11711;SDS011;5912;51.034;6.984;2023-06-22T10:06:02;4.35;;;3.95;;
11711;SDS011;5912;51.034;6.984;2023-06-22T10:08:28;4.53;;;4.00;;
11711;SDS011;5912;51.034;6.984;2023-06-22T10:10:53;5.32;;;4.43;;
11711;SDS011;5912;51.034;6.984;2023-06-22T10:13:18;5.75;;;4.30;;
11711;SDS011;5912;51.034;6.984;2023-06-22T10:15:44;4.07;;;3.67;;
11711;SDS011;5912;51.034;6.984;2023-06-22T10:18:14;4.72;;;4.32;;
11711;SDS011;5912;51.034;6.984;2023-06-22T10:20:41;4.47;;;4.05;;
11711;SDS011;5912;51.034;6.984;2023-06-22T10:23:06;5.00;;;4.18;;
11711;SDS011;5912;51.034;6.984;2023-06-22T10:25:31;4.90;;;4.40;;
11711;SDS011;5912;51.034;6.984;2023-06-22T10:27:57;6.15;;;4.93;;
11711;SDS011;5912;51.034;6.984;2023-06-22T10:30:22;5.63;;;4.75;;
11711;SDS011;5912;51.034;6.984;2023-06-22T10:32:48;5.25;;;4.68;;
11711;SDS011;5912;51.034;6.984;2023-06-22T10:35:13;5.15;;;4.65;;
11711;SDS011;5912;51.034;6.984;2023-06-22T10:37:41;6.38;;;5.20;;
11711;SDS011;5912;51.034;6.984;2023-06-22T10:40:08;7.25;;;6.47;;
11711;SDS011;5912;51.034;6.984;2023-06-22T10:42:34;6.07;;;5.47;;
11711;SDS011;5912;51.034;6.984;2023-06-22T10:44:59;6.15;;;5.28;;
11711;SDS011;5912;51.034;6.984;2023-06-22T10:47:24;5.88;;;5.28;;
11711;SDS011;5912;51.034;6.984;2023-06-22T10:49:50;7.63;;;5.45;;
11711;SDS011;5912;51.034;6.984;2023-06-22T10:52:15;7.57;;;5.97;;
11711;SDS011;5912;51.034;6.984;2023-06-22T10:54:40;7.88;;;6.10;;
11711;SDS011;5912;51.034;6.984;2023-06-22T10:57:06;8.85;;;5.95;;
11711;SDS011;5912;51.034;6.984;2023-06-22T10:59:31;8.48;;;5.95;;
11711;SDS011;5912;51.034;6.984;2023-06-22T11:01:57;9.65;;;6.38;;
11711;SDS011;5912;51.034;6.984;2023-06-22T11:04:23;8.93;;;6.75;;
11711;SDS011;5912;51.034;6.984;2023-06-22T11:06:48;8.82;;;6.15;;
11711;SDS011;5912;51.034;6.984;2023-06-22T11:09:14;6.40;;;5.80;;
11711;SDS011;5912;51.034;6.984;2023-06-22T11:11:44;11.45;;;6.95;;
11711;SDS011;5912;51.034;6.984;2023-06-22T11:14:09;7.32;;;6.35;;
11711;SDS011;5912;51.034;6.984;2023-06-22T11:16:35;7.68;;;5.90;;
11711;SDS011;5912;51.034;6.984;2023-06-22T11:19:00;10.18;;;5.82;;
11711;SDS011;5912;51.034;6.984;2023-06-22T11:21:26;7.97;;;6.13;;
11711;SDS011;5912;51.034;6.984;2023-06-22T11:23:51;7.63;;;6.82;;
11711;SDS011;5912;51.034;6.984;2023-06-22T11:26:16;7.43;;;6.63;;
11711;SDS011;5912;51.034;6.984;2023-06-22T11:28:41;8.48;;;5.93;;
11711;SDS011;5912;51.034;6.984;2023-06-22T11:31:07;8.93;;;7.63;;
11711;SDS011;5912;51.034;6.984;2023-06-22T11:33:32;9.23;;;7.28;;
11711;SDS011;5912;51.034;6.984;2023-06-22T11:35:57;11.63;;;8.20;;
11711;SDS011;5912;51.034;6.984;2023-06-22T11:38:23;7.55;;;6.47;;
11711;SDS011;5912;51.034;6.984;2023-06-22T11:40:48;9.10;;;7.00;;
11711;SDS011;5912;51.034;6.984;2023-06-22T11:43:14;7.40;;;6.70;;
11711;SDS011;5912;51.034;6.984;2023-06-22T11:45:40;9.38;;;7.35;;
11711;SDS011;5912;51.034;6.984;2023-06-22T11:48:05;8.38;;;7.00;;
11711;SDS011;5912;51.034;6.984;2023-06-22T11:50:30;7.90;;;6.97;;
11711;SDS011;5912;51.034;6.984;2023-06-22T11:53:00;10.40;;;8.13;;
11711;SDS011;5912;51.034;6.984;2023-06-22T11:55:26;7.75;;;6.63;;
11711;SDS011;5912;51.034;6.984;2023-06-22T11:57:53;9.48;;;8.30;;
11711;SDS011;5912;51.034;6.984;2023-06-22T12:00:20;10.75;;;8.68;;
11711;SDS011;5912;51.034;6.984;2023-06-22T12:02:48;11.20;;;8.80;;
11711;SDS011;5912;51.034;6.984;2023-06-22T12:05:13;12.40;;;7.90;;
11711;SDS011;5912;51.034;6.984;2023-06-22T12:07:38;8.25;;;7.40;;
11711;SDS011;5912;51.034;6.984;2023-06-22T12:10:04;8.48;;;7.22;;
11711;SDS011;5912;51.034;6.984;2023-06-22T12:12:29;9.05;;;8.15;;
11711;SDS011;5912;51.034;6.984;2023-06-22T12:14:55;9.73;;;8.73;;
11711;SDS011;5912;51.034;6.984;2023-06-22T12:17:20;8.43;;;7.50;;
11711;SDS011;5912;51.034;6.984;2023-06-22T12:19:45;7.28;;;6.15;;
11711;SDS011;5912;51.034;6.984;2023-06-22T12:22:11;8.30;;;6.85;;
11711;SDS011;5912;51.034;6.984;2023-06-22T12:24:36;6.47;;;5.72;;
11711;SDS011;5912;51.034;6.984;2023-06-22T12:27:01;5.95;;;4.70;;
11711;SDS011;5912;51.034;6.984;2023-06-22T12:29:28;6.38;;;5.45;;
11711;SDS011;5912;51.034;6.984;2023-06-22T12:31:53;6.10;;;5.50;;
11711;SDS011;5912;51.034;6.984;2023-06-22T12:34:19;6.65;;;5.13;;
11711;SDS011;5912;51.034;6.984;2023-06-22T12:36:44;6.78;;;5.97;;
11711;SDS011;5912;51.034;6.984;2023-06-22T12:39:09;5.10;;;4.70;;
11711;SDS011;5912;51.034;6.984;2023-06-22T12:41:34;6.50;;;5.13;;
11711;SDS011;5912;51.034;6.984;2023-06-22T12:44:00;7.32;;;5.07;;
11711;SDS011;5912;51.034;6.984;2023-06-22T12:46:25;5.35;;;4.72;;
11711;SDS011;5912;51.034;6.984;2023-06-22T12:48:50;8.02;;;5.05;;
11711;SDS011;5912;51.034;6.984;2023-06-22T12:51:22;5.50;;;4.90;;
11711;SDS011;5912;51.034;6.984;2023-06-22T12:53:48;5.90;;;5.20;;
11711;SDS011;5912;51.034;6.984;2023-06-22T12:56:13;6.20;;;4.78;;
11711;SDS011;5912;51.034;6.984;2023-06-22T12:58:38;4.95;;;4.45;;
11711;SDS011;5912;51.034;6.984;2023-06-22T13:01:04;4.70;;;4.05;;
11711;SDS011;5912;51.034;6.984;2023-06-22T13:03:29;4.60;;;4.10;;
11711;SDS011;5912;51.034;6.984;2023-06-22T13:05:54;4.70;;;3.95;;
11711;SDS011;5912;51.034;6.984;2023-06-22T13:08:20;3.70;;;3.40;;
11711;SDS011;5912;51.034;6.984;2023-06-22T13:10:45;3.92;;;3.63;;
11711;SDS011;5912;51.034;6.984;2023-06-22T13:13:11;4.68;;;3.72;;
11711;SDS011;5912;51.034;6.984;2023-06-22T13:15:36;4.22;;;3.83;;
11711;SDS011;5912;51.034;6.984;2023-06-22T13:18:01;4.10;;;3.70;;
11711;SDS011;5912;51.034;6.984;2023-06-22T13:20:28;4.68;;;3.50;;
11711;SDS011;5912;51.034;6.984;2023-06-22T13:22:53;3.40;;;3.10;;
11711;SDS011;5912;51.034;6.984;2023-06-22T13:25:20;3.83;;;3.50;;
11711;SDS011;5912;51.034;6.984;2023-06-22T13:27:48;3.35;;;2.95;;
11711;SDS011;5912;51.034;6.984;2023-06-22T13:30:13;2.85;;;2.58;;
11711;SDS011;5912;51.034;6.984;2023-06-22T13:32:39;2.55;;;2.35;;
11711;SDS011;5912;51.034;6.984;2023-06-22T13:35:07;4.90;;;2.65;;
11711;SDS011;5912;51.034;6.984;2023-06-22T13:37:33;2.65;;;2.45;;
11711;SDS011;5912;51.034;6.984;2023-06-22T13:39:58;2.22;;;2.03;;
11711;SDS011;5912;51.034;6.984;2023-06-22T13:42:24;2.17;;;1.95;;
11711;SDS011;5912;51.034;6.984;2023-06-22T13:44:50;2.67;;;2.17;;
11711;SDS011;5912;51.034;6.984;2023-06-22T13:47:15;2.55;;;2.10;;
11711;SDS011;5912;51.034;6.984;2023-06-22T13:49:41;2.50;;;2.30;;
11711;SDS011;5912;51.034;6.984;2023-06-22T13:52:06;3.30;;;3.00;;
11711;SDS011;5912;51.034;6.984;2023-06-22T13:54:35;3.33;;;3.03;;
11711;SDS011;5912;51.034;6.984;2023-06-22T13:57:01;4.05;;;3.45;;
11711;SDS011;5912;51.034;6.984;2023-06-22T13:59:26;3.53;;;3.22;;
11711;SDS011;5912;51.034;6.984;2023-06-22T14:01:53;5.15;;;3.42;;
11711;SDS011;5912;51.034;6.984;2023-06-22T14:04:18;3.83;;;3.10;;
11711;SDS011;5912;51.034;6.984;2023-06-22T14:06:44;3.88;;;3.58;;
11711;SDS011;5912;51.034;6.984;2023-06-22T14:09:09;3.90;;;3.35;;
11711;SDS011;5912;51.034;6.984;2023-06-22T14:11:34;3.58;;;3.28;;
11711;SDS011;5912;51.034;6.984;2023-06-22T14:14:00;3.92;;;3.38;;
11711;SDS011;5912;51.034;6.984;2023-06-22T14:16:25;4.10;;;3.70;;
11711;SDS011;5912;51.034;6.984;2023-06-22T14:18:51;4.13;;;3.70;;
11711;SDS011;5912;51.034;6.984;2023-06-22T14:21:17;4.95;;;4.20;;
11711;SDS011;5912;51.034;6.984;2023-06-22T14:23:43;4.20;;;3.80;;
11711;SDS011;5912;51.034;6.984;2023-06-22T14:26:14;5.10;;;3.70;;
11711;SDS011;5912;51.034;6.984;2023-06-22T14:28:39;3.50;;;3.20;;
11711;SDS011;5912;51.034;6.984;2023-06-22T14:31:04;3.95;;;3.45;;
11711;SDS011;5912;51.034;6.984;2023-06-22T14:33:30;3.90;;;2.88;;
11711;SDS011;5912;51.034;6.984;2023-06-22T14:35:55;5.80;;;2.80;;
11711;SDS011;5912;51.034;6.984;2023-06-22T14:38:20;2.60;;;2.40;;
11711;SDS011;5912;51.034;6.984;2023-06-22T14:40:46;3.10;;;2.85;;
11711;SDS011;5912;51.034;6.984;2023-06-22T14:43:11;4.88;;;3.22;;
11711;SDS011;5912;51.034;6.984;2023-06-22T14:45:37;3.75;;;2.95;;
11711;SDS011;5912;51.034;6.984;2023-06-22T14:48:02;2.95;;;2.70;;
11711;SDS011;5912;51.034;6.984;2023-06-22T14:50:27;3.10;;;2.80;;
11711;SDS011;5912;51.034;6.984;2023-06-22T14:52:53;2.80;;;2.60;;
11711;SDS011;5912;51.034;6.984;2023-06-22T14:55:18;3.70;;;3.30;;
11711;SDS011;5912;51.034;6.984;2023-06-22T14:57:44;3.58;;;3.28;;
11711;SDS011;5912;51.034;6.984;2023-06-22T15:00:09;3.80;;;3.50;;
11711;SDS011;5912;51.034;6.984;2023-06-22T15:02:35;4.30;;;3.47;;
11711;SDS011;5912;51.034;6.984;2023-06-22T15:05:00;6.20;;;3.80;;